createdAt,value
2017-08-16T00:00:52.403Z,0
2017-08-16T00:01:52.392Z,0
2017-08-16T00:02:52.079Z,0
2017-08-16T00:03:52.388Z,0
2017-08-16T00:04:52.082Z,0
2017-08-16T00:05:52.380Z,0
2017-08-16T00:06:52.382Z,0
2017-08-16T00:07:51.768Z,0
2017-08-16T00:08:52.377Z,0
2017-08-16T00:09:52.366Z,0
2017-08-16T00:10:52.368Z,0
2017-08-16T00:11:52.367Z,0
2017-08-16T00:12:52.369Z,0
2017-08-16T00:13:52.356Z,0
2017-08-16T00:14:52.355Z,0
2017-08-16T00:15:52.348Z,0
2017-08-16T00:16:52.345Z,0
2017-08-16T00:17:52.343Z,0
2017-08-16T00:18:52.346Z,0
2017-08-16T00:19:52.336Z,0
2017-08-16T00:20:52.346Z,0
2017-08-16T00:21:52.330Z,0
2017-08-16T00:22:52.330Z,0
2017-08-16T00:23:52.322Z,0
2017-08-16T00:24:52.322Z,0
2017-08-16T00:25:52.321Z,0
2017-08-16T00:26:51.702Z,0
2017-08-16T00:27:52.313Z,0
2017-08-16T00:28:52.318Z,0
2017-08-16T00:29:51.695Z,0
2017-08-16T00:30:51.999Z,0
2017-08-16T00:31:52.300Z,0
2017-08-16T00:32:52.002Z,0
2017-08-16T00:33:51.991Z,0
2017-08-16T00:34:52.293Z,0
2017-08-16T00:35:51.988Z,0
2017-08-16T00:36:52.285Z,0
2017-08-16T00:37:52.286Z,0
2017-08-16T00:38:52.285Z,0
2017-08-16T00:39:51.972Z,0
2017-08-16T00:40:52.274Z,0
2017-08-16T00:41:51.978Z,0
2017-08-16T00:42:51.983Z,0
2017-08-16T00:43:51.653Z,0
2017-08-16T00:44:52.262Z,0
2017-08-16T00:45:51.957Z,0
2017-08-16T00:46:52.255Z,0
2017-08-16T00:47:51.641Z,0
2017-08-16T00:48:52.245Z,0
2017-08-16T00:49:51.943Z,0
2017-08-16T00:50:51.939Z,0
2017-08-16T00:51:52.239Z,0
2017-08-16T00:52:51.932Z,0
2017-08-16T00:53:52.242Z,0
2017-08-16T00:54:52.231Z,0
2017-08-16T00:55:51.924Z,0
2017-08-16T00:56:51.921Z,0
2017-08-16T00:57:51.609Z,0
2017-08-16T00:58:51.922Z,0
2017-08-16T00:59:52.217Z,0
2017-08-16T01:00:51.906Z,0
2017-08-16T01:01:51.903Z,0
2017-08-16T01:02:51.595Z,0
2017-08-16T01:03:51.901Z,0
2017-08-16T01:04:51.893Z,0
2017-08-16T01:05:51.591Z,0
2017-08-16T01:06:51.885Z,0
2017-08-16T01:07:51.879Z,0
2017-08-16T01:08:51.881Z,0
2017-08-16T01:09:51.878Z,0
2017-08-16T01:10:51.567Z,0
2017-08-16T01:11:52.174Z,0
2017-08-16T01:12:51.562Z,0
2017-08-16T01:13:51.866Z,0
2017-08-16T01:14:51.865Z,0
2017-08-16T01:15:52.164Z,0
2017-08-16T01:16:52.160Z,0
2017-08-16T01:17:51.869Z,0
2017-08-16T01:18:52.162Z,0
2017-08-16T01:19:52.165Z,0
2017-08-16T01:20:52.168Z,0
2017-08-16T01:21:52.142Z,0
2017-08-16T01:22:52.150Z,0
2017-08-16T01:23:52.148Z,0
2017-08-16T01:24:52.144Z,0
2017-08-16T01:25:52.139Z,0
2017-08-16T01:26:52.134Z,0
2017-08-16T01:27:52.135Z,0
2017-08-16T01:28:52.130Z,0
2017-08-16T01:29:52.121Z,0
2017-08-16T01:30:51.823Z,0
2017-08-16T01:31:51.806Z,0
2017-08-16T01:32:51.809Z,0
2017-08-16T01:33:52.114Z,0
2017-08-16T01:34:52.114Z,0
2017-08-16T01:35:52.105Z,0
2017-08-16T01:36:52.098Z,0
2017-08-16T01:37:52.102Z,0
2017-08-16T01:38:52.095Z,0
2017-08-16T01:39:51.799Z,0
2017-08-16T01:40:52.092Z,0
2017-08-16T01:41:52.088Z,0
2017-08-16T01:42:52.082Z,0
2017-08-16T01:43:52.082Z,0
2017-08-16T01:44:51.771Z,0
2017-08-16T01:45:52.090Z,0
2017-08-16T01:46:51.481Z,0
2017-08-16T01:47:52.061Z,0
2017-08-16T01:48:52.070Z,0
2017-08-16T01:49:52.066Z,0
2017-08-16T01:50:52.056Z,0
2017-08-16T01:51:52.057Z,0
2017-08-16T01:52:52.058Z,0
2017-08-16T01:53:51.747Z,0
2017-08-16T01:54:52.042Z,0
2017-08-16T01:55:52.048Z,0
2017-08-16T01:56:51.767Z,0
2017-08-16T01:57:51.730Z,0
2017-08-16T01:58:51.738Z,0
2017-08-16T01:59:51.731Z,0
2017-08-16T02:00:51.733Z,0
2017-08-16T02:01:52.021Z,0
2017-08-16T02:02:52.023Z,0
2017-08-16T02:03:52.021Z,0
2017-08-16T02:04:52.017Z,0
2017-08-16T02:05:52.021Z,0
2017-08-16T02:06:52.009Z,0
2017-08-16T02:07:52.000Z,0
2017-08-16T02:08:52.007Z,0
2017-08-16T02:09:52.026Z,0
2017-08-16T02:10:51.691Z,0
2017-08-16T02:11:51.997Z,0
2017-08-16T02:12:52.002Z,0
2017-08-16T02:13:51.692Z,0
2017-08-16T02:14:51.985Z,0
2017-08-16T02:15:51.672Z,0
2017-08-16T02:16:51.980Z,0
2017-08-16T02:17:52.002Z,0
2017-08-16T02:18:51.971Z,0
2017-08-16T02:19:51.967Z,0
2017-08-16T02:20:51.970Z,0
2017-08-16T02:21:51.964Z,0
2017-08-16T02:22:51.960Z,0
2017-08-16T02:23:51.953Z,0
2017-08-16T02:24:51.657Z,0
2017-08-16T02:25:51.952Z,0
2017-08-16T02:26:51.942Z,0
2017-08-16T02:27:51.950Z,0
2017-08-16T02:28:51.945Z,0
2017-08-16T02:29:51.942Z,0
2017-08-16T02:30:51.928Z,0
2017-08-16T02:31:51.931Z,0
2017-08-16T02:32:51.930Z,0
2017-08-16T02:33:51.922Z,0
2017-08-16T02:34:51.921Z,0
2017-08-16T02:35:51.926Z,0
2017-08-16T02:36:51.921Z,0
2017-08-16T02:37:51.606Z,0
2017-08-16T02:38:51.910Z,0
2017-08-16T02:39:51.912Z,0
2017-08-16T02:40:51.902Z,0
2017-08-16T02:41:51.905Z,0
2017-08-16T02:42:51.595Z,0
2017-08-16T02:43:51.280Z,0
2017-08-16T02:44:51.594Z,0
2017-08-16T02:45:51.890Z,0
2017-08-16T02:46:51.579Z,0
2017-08-16T02:47:51.880Z,0
2017-08-16T02:48:51.565Z,0
2017-08-16T02:49:51.566Z,0
2017-08-16T02:50:51.879Z,0
2017-08-16T02:51:51.867Z,0
2017-08-16T02:52:51.859Z,0
2017-08-16T02:53:51.554Z,0
2017-08-16T02:54:51.859Z,0
2017-08-16T02:55:51.245Z,0
2017-08-16T02:56:51.853Z,0
2017-08-16T02:57:51.544Z,0
2017-08-16T02:58:51.579Z,0
2017-08-16T02:59:51.844Z,0
2017-08-16T03:00:51.842Z,0
2017-08-16T03:01:51.836Z,0
2017-08-16T03:02:51.834Z,0
2017-08-16T03:03:51.844Z,0
2017-08-16T03:04:51.824Z,0
2017-08-16T03:05:51.820Z,0
2017-08-16T03:06:51.813Z,0
2017-08-16T03:07:51.510Z,0
2017-08-16T03:08:51.818Z,0
2017-08-16T03:09:51.206Z,0
2017-08-16T03:10:51.503Z,0
2017-08-16T03:11:51.510Z,0
2017-08-16T03:12:51.495Z,0
2017-08-16T03:13:51.492Z,0
2017-08-16T03:14:51.188Z,0
2017-08-16T03:15:51.787Z,0
2017-08-16T03:16:51.794Z,0
2017-08-16T03:17:51.781Z,0
2017-08-16T03:18:51.783Z,0
2017-08-16T03:19:51.468Z,0
2017-08-16T03:20:51.777Z,0
2017-08-16T03:21:51.772Z,0
2017-08-16T03:22:51.764Z,0
2017-08-16T03:23:51.463Z,0
2017-08-16T03:24:51.766Z,0
2017-08-16T03:25:51.752Z,0
2017-08-16T03:26:51.762Z,0
2017-08-16T03:27:51.754Z,0
2017-08-16T03:28:51.754Z,0
2017-08-16T03:29:51.749Z,0
2017-08-16T03:30:51.446Z,0
2017-08-16T03:31:51.748Z,0
2017-08-16T03:32:51.739Z,0
2017-08-16T03:33:51.735Z,0
2017-08-16T03:34:51.745Z,0
2017-08-16T03:35:51.726Z,0
2017-08-16T03:36:51.732Z,0
2017-08-16T03:37:51.716Z,0
2017-08-16T03:38:51.408Z,0
2017-08-16T03:39:51.717Z,0
2017-08-16T03:40:51.724Z,0
2017-08-16T03:41:51.402Z,0
2017-08-16T03:42:51.704Z,0
2017-08-16T03:43:51.699Z,0
2017-08-16T03:44:51.381Z,0
2017-08-16T03:45:51.697Z,0
2017-08-16T03:46:51.687Z,0
2017-08-16T03:47:51.688Z,0
2017-08-16T03:48:51.384Z,0
2017-08-16T03:49:51.374Z,0
2017-08-16T03:50:51.369Z,0
2017-08-16T03:51:51.669Z,0
2017-08-16T03:52:51.668Z,0
2017-08-16T03:53:51.670Z,0
2017-08-16T03:54:51.671Z,0
2017-08-16T03:55:51.660Z,0
2017-08-16T03:56:51.653Z,0
2017-08-16T03:57:51.658Z,0
2017-08-16T03:58:51.336Z,0
2017-08-16T03:59:51.642Z,0
2017-08-16T04:00:51.639Z,0
2017-08-16T04:01:51.325Z,0
2017-08-16T04:02:51.635Z,0
2017-08-16T04:03:51.641Z,0
2017-08-16T04:04:51.020Z,0
2017-08-16T04:05:51.655Z,0
2017-08-16T04:06:51.628Z,0
2017-08-16T04:07:51.614Z,0
2017-08-16T04:08:51.307Z,0
2017-08-16T04:09:51.616Z,0
2017-08-16T04:10:51.295Z,0
2017-08-16T04:11:51.304Z,0
2017-08-16T04:12:51.609Z,0
2017-08-16T04:13:51.297Z,0
2017-08-16T04:14:51.599Z,0
2017-08-16T04:15:51.294Z,0
2017-08-16T04:16:51.587Z,0
2017-08-16T04:17:51.586Z,0
2017-08-16T04:18:51.584Z,0
2017-08-16T04:19:51.579Z,0
2017-08-16T04:20:51.578Z,0
2017-08-16T04:21:51.581Z,0
2017-08-16T04:22:51.563Z,0
2017-08-16T04:23:50.954Z,0
2017-08-16T04:24:51.577Z,0
2017-08-16T04:25:51.558Z,0
2017-08-16T04:26:51.553Z,0
2017-08-16T04:27:51.554Z,0
2017-08-16T04:28:51.554Z,0
2017-08-16T04:29:51.557Z,0
2017-08-16T04:30:51.239Z,0
2017-08-16T04:31:51.552Z,0
2017-08-16T04:32:51.540Z,0
2017-08-16T04:33:51.535Z,0
2017-08-16T04:34:51.530Z,0
2017-08-16T04:35:51.527Z,0
2017-08-16T04:36:51.523Z,0
2017-08-16T04:37:51.517Z,0
2017-08-16T04:38:51.524Z,0
2017-08-16T04:39:51.513Z,0
2017-08-16T04:40:51.521Z,0
2017-08-16T04:41:51.503Z,0
2017-08-16T04:42:51.200Z,0
2017-08-16T04:43:51.199Z,0
2017-08-16T04:44:51.205Z,0
2017-08-16T04:45:51.492Z,0
2017-08-16T04:46:51.495Z,0
2017-08-16T04:47:51.489Z,0
2017-08-16T04:48:51.482Z,0
2017-08-16T04:49:51.496Z,0
2017-08-16T04:50:51.473Z,0
2017-08-16T04:51:51.167Z,0
2017-08-16T04:52:51.489Z,0
2017-08-16T04:53:51.467Z,0
2017-08-16T04:54:51.154Z,0
2017-08-16T04:55:51.463Z,0
2017-08-16T04:56:51.459Z,0
2017-08-16T04:57:51.451Z,0
2017-08-16T04:58:51.447Z,0
2017-08-16T04:59:51.444Z,5
2017-08-16T05:00:51.452Z,5
2017-08-16T05:01:51.456Z,5
2017-08-16T05:02:51.444Z,5
2017-08-16T05:03:51.134Z,5
2017-08-16T05:04:51.432Z,5
2017-08-16T05:05:51.423Z,5
2017-08-16T05:06:51.436Z,5
2017-08-16T05:07:51.425Z,5
2017-08-16T05:08:51.447Z,5
2017-08-16T05:09:51.420Z,5
2017-08-16T05:10:51.407Z,10
2017-08-16T05:11:51.405Z,10
2017-08-16T05:12:51.101Z,10
2017-08-16T05:13:51.414Z,10
2017-08-16T05:14:51.092Z,15
2017-08-16T05:15:51.390Z,15
2017-08-16T05:16:50.781Z,15
2017-08-16T05:17:51.078Z,15
2017-08-16T05:18:51.385Z,15
2017-08-16T05:19:51.386Z,10
2017-08-16T05:20:51.377Z,10
2017-08-16T05:21:51.374Z,10
2017-08-16T05:22:51.381Z,10
2017-08-16T05:23:51.060Z,10
2017-08-16T05:24:51.362Z,10
2017-08-16T05:25:51.367Z,10
2017-08-16T05:26:51.044Z,5
2017-08-16T05:27:51.079Z,5
2017-08-16T05:28:51.355Z,5
2017-08-16T05:29:51.353Z,5
2017-08-16T05:30:51.343Z,5
2017-08-16T05:31:51.339Z,10
2017-08-16T05:32:51.031Z,10
2017-08-16T05:33:51.330Z,10
2017-08-16T05:34:51.340Z,10
2017-08-16T05:35:51.333Z,10
2017-08-16T05:36:51.029Z,10
2017-08-16T05:37:51.016Z,10
2017-08-16T05:38:51.009Z,15
2017-08-16T05:39:50.705Z,15
2017-08-16T05:40:51.314Z,15
2017-08-16T05:41:51.306Z,15
2017-08-16T05:42:51.307Z,15
2017-08-16T05:43:51.311Z,15
2017-08-16T05:44:51.297Z,15
2017-08-16T05:45:51.302Z,15
2017-08-16T05:46:51.300Z,15
2017-08-16T05:47:51.291Z,20
2017-08-16T05:48:50.676Z,20
2017-08-16T05:49:51.283Z,20
2017-08-16T05:50:51.287Z,20
2017-08-16T05:51:50.965Z,20
2017-08-16T05:52:50.964Z,20
2017-08-16T05:53:51.275Z,20
2017-08-16T05:54:51.263Z,20
2017-08-16T05:55:51.266Z,20
2017-08-16T05:56:51.266Z,20
2017-08-16T05:57:51.251Z,20
2017-08-16T05:58:51.260Z,20
2017-08-16T05:59:51.246Z,25
2017-08-16T06:00:51.247Z,25
2017-08-16T06:01:51.239Z,25
2017-08-16T06:02:51.232Z,25
2017-08-16T06:03:50.938Z,25
2017-08-16T06:04:50.920Z,25
2017-08-16T06:05:51.240Z,30
2017-08-16T06:06:51.218Z,35
2017-08-16T06:07:51.217Z,35
2017-08-16T06:08:51.222Z,35
2017-08-16T06:09:50.917Z,35
2017-08-16T06:10:50.598Z,30
2017-08-16T06:11:50.911Z,30
2017-08-16T06:12:50.907Z,35
2017-08-16T06:13:51.208Z,35
2017-08-16T06:14:50.898Z,35
2017-08-16T06:15:51.193Z,35
2017-08-16T06:16:50.604Z,35
2017-08-16T06:17:51.187Z,35
2017-08-16T06:18:50.880Z,35
2017-08-16T06:19:51.183Z,35
2017-08-16T06:20:51.445Z,35
2017-08-16T06:21:51.196Z,35
2017-08-16T06:22:50.892Z,35
2017-08-16T06:23:51.177Z,35
2017-08-16T06:24:51.170Z,35
2017-08-16T06:25:51.166Z,35
2017-08-16T06:26:51.166Z,35
2017-08-16T06:27:51.156Z,30
2017-08-16T06:28:51.156Z,30
2017-08-16T06:29:51.155Z,30
2017-08-16T06:30:51.160Z,35
2017-08-16T06:31:51.146Z,35
2017-08-16T06:32:51.140Z,40
2017-08-16T06:33:51.142Z,45
2017-08-16T06:34:50.831Z,45
2017-08-16T06:35:51.130Z,50
2017-08-16T06:36:50.826Z,55
2017-08-16T06:37:51.118Z,55
2017-08-16T06:38:51.134Z,60
2017-08-16T06:39:51.126Z,60
2017-08-16T06:40:50.815Z,60
2017-08-16T06:41:50.806Z,65
2017-08-16T06:42:51.130Z,65
2017-08-16T06:43:50.808Z,70
2017-08-16T06:44:51.112Z,75
2017-08-16T06:45:51.102Z,80
2017-08-16T06:46:51.098Z,85
2017-08-16T06:47:51.097Z,90
2017-08-16T06:48:51.086Z,100
2017-08-16T06:49:51.091Z,115
2017-08-16T06:50:51.087Z,140
2017-08-16T06:51:51.087Z,140
2017-08-16T06:52:51.076Z,210
2017-08-16T06:53:51.080Z,240
2017-08-16T06:54:51.079Z,450
2017-08-16T06:55:51.080Z,255
2017-08-16T06:56:50.774Z,470
2017-08-16T06:57:51.068Z,450
2017-08-16T06:58:51.063Z,365
2017-08-16T06:59:51.061Z,340
2017-08-16T07:00:51.052Z,170
2017-08-16T07:01:51.060Z,160
2017-08-16T07:02:50.139Z,275
2017-08-16T07:03:51.055Z,330
2017-08-16T07:04:50.741Z,340
2017-08-16T07:05:50.738Z,230
2017-08-16T07:06:51.040Z,225
2017-08-16T07:07:51.040Z,215
2017-08-16T07:08:50.468Z,205
2017-08-16T07:09:51.035Z,215
2017-08-16T07:10:51.037Z,210
2017-08-16T07:11:51.031Z,210
2017-08-16T07:12:51.025Z,210
2017-08-16T07:13:50.732Z,210
2017-08-16T07:14:51.022Z,210
2017-08-16T07:15:50.714Z,210
2017-08-16T07:16:50.713Z,210
2017-08-16T07:17:50.707Z,205
2017-08-16T07:18:50.705Z,205
2017-08-16T07:19:50.705Z,200
2017-08-16T07:20:51.018Z,205
2017-08-16T07:21:50.401Z,175
2017-08-16T07:22:51.012Z,145
2017-08-16T07:23:50.399Z,190
2017-08-16T07:24:51.005Z,185
2017-08-16T07:25:51.002Z,185
2017-08-16T07:26:50.706Z,145
2017-08-16T07:27:50.998Z,110
2017-08-16T07:28:50.693Z,115
2017-08-16T07:29:50.689Z,165
2017-08-16T07:30:50.995Z,165
2017-08-16T07:31:50.678Z,160
2017-08-16T07:32:50.994Z,165
2017-08-16T07:33:50.692Z,165
2017-08-16T07:34:50.994Z,160
2017-08-16T07:35:50.695Z,160
2017-08-16T07:36:50.684Z,140
2017-08-16T07:37:50.680Z,150
2017-08-16T07:38:50.983Z,150
2017-08-16T07:39:50.673Z,145
2017-08-16T07:40:50.982Z,140
2017-08-16T07:41:50.674Z,140
2017-08-16T07:42:50.672Z,140
2017-08-16T07:43:50.676Z,140
2017-08-16T07:44:50.665Z,135
2017-08-16T07:45:50.677Z,135
2017-08-16T07:46:50.674Z,130
2017-08-16T07:47:50.968Z,125
2017-08-16T07:48:50.971Z,125
2017-08-16T07:49:50.662Z,125
2017-08-16T07:50:50.974Z,120
2017-08-16T07:51:50.966Z,120
2017-08-16T07:52:50.360Z,115
2017-08-16T07:53:50.659Z,115
2017-08-16T07:54:50.657Z,115
2017-08-16T07:55:50.661Z,110
2017-08-16T07:56:50.662Z,110
2017-08-16T07:57:50.647Z,110
2017-08-16T07:58:50.957Z,95
2017-08-16T07:59:50.351Z,90
2017-08-16T08:00:50.340Z,85
2017-08-16T08:01:50.646Z,85
2017-08-16T08:02:50.971Z,100
2017-08-16T08:03:50.334Z,105
2017-08-16T08:04:50.636Z,100
2017-08-16T08:05:50.638Z,100
2017-08-16T08:06:50.638Z,100
2017-08-16T08:07:50.946Z,95
2017-08-16T08:08:50.639Z,95
2017-08-16T08:09:50.634Z,90
2017-08-16T08:10:50.635Z,90
2017-08-16T08:11:50.626Z,90
2017-08-16T08:12:50.936Z,85
2017-08-16T08:13:50.624Z,85
2017-08-16T08:14:50.930Z,85
2017-08-16T08:15:50.617Z,80
2017-08-16T08:16:50.620Z,80
2017-08-16T08:17:50.615Z,80
2017-08-16T08:18:50.612Z,75
2017-08-16T08:19:50.613Z,75
2017-08-16T08:20:50.612Z,75
2017-08-16T08:21:50.611Z,70
2017-08-16T08:22:50.608Z,70
2017-08-16T08:23:50.295Z,70
2017-08-16T08:24:50.602Z,70
2017-08-16T08:25:50.908Z,70
2017-08-16T08:26:50.600Z,70
2017-08-16T08:27:50.602Z,70
2017-08-16T08:28:50.323Z,70
2017-08-16T08:29:50.922Z,70
2017-08-16T08:30:50.898Z,70
2017-08-16T08:31:50.902Z,70
2017-08-16T08:32:50.894Z,70
2017-08-16T08:33:50.586Z,70
2017-08-16T08:34:50.593Z,70
2017-08-16T08:35:50.884Z,70
2017-08-16T08:36:50.579Z,70
2017-08-16T08:37:50.278Z,65
2017-08-16T08:38:50.585Z,65
2017-08-16T08:39:50.878Z,65
2017-08-16T08:40:50.576Z,65
2017-08-16T08:41:50.563Z,65
2017-08-16T08:42:50.883Z,65
2017-08-16T08:43:50.567Z,65
2017-08-16T08:44:50.261Z,65
2017-08-16T08:45:50.560Z,65
2017-08-16T08:46:50.870Z,65
2017-08-16T08:47:50.239Z,65
2017-08-16T08:48:50.262Z,65
2017-08-16T08:49:50.544Z,65
2017-08-16T08:50:50.237Z,65
2017-08-16T08:51:50.854Z,65
2017-08-16T08:52:50.240Z,65
2017-08-16T08:53:50.544Z,65
2017-08-16T08:54:50.853Z,65
2017-08-16T08:55:50.837Z,65
2017-08-16T08:56:50.536Z,65
2017-08-16T08:57:50.842Z,65
2017-08-16T08:58:50.224Z,65
2017-08-16T08:59:50.851Z,65
2017-08-16T09:00:50.221Z,65
2017-08-16T09:01:50.831Z,60
2017-08-16T09:02:50.838Z,60
2017-08-16T09:03:50.822Z,60
2017-08-16T09:04:50.839Z,60
2017-08-16T09:05:50.827Z,60
2017-08-16T09:06:50.819Z,60
2017-08-16T09:07:50.827Z,60
2017-08-16T09:08:50.510Z,60
2017-08-16T09:09:50.205Z,60
2017-08-16T09:10:50.808Z,60
2017-08-16T09:11:50.811Z,60
2017-08-16T09:12:50.804Z,60
2017-08-16T09:13:50.825Z,60
2017-08-16T09:14:50.498Z,60
2017-08-16T09:15:50.501Z,60
2017-08-16T09:16:50.828Z,55
2017-08-16T09:17:50.794Z,65
2017-08-16T09:18:50.480Z,65
2017-08-16T09:19:50.796Z,70
2017-08-16T09:20:50.479Z,70
2017-08-16T09:21:50.481Z,65
2017-08-16T09:22:50.482Z,65
2017-08-16T09:23:50.779Z,75
2017-08-16T09:24:50.475Z,75
2017-08-16T09:25:50.773Z,70
2017-08-16T09:26:50.465Z,65
2017-08-16T09:27:50.767Z,70
2017-08-16T09:28:50.477Z,70
2017-08-16T09:29:50.459Z,65
2017-08-16T09:30:50.474Z,65
2017-08-16T09:31:50.768Z,60
2017-08-16T09:32:50.764Z,60
2017-08-16T09:33:50.759Z,60
2017-08-16T09:34:50.447Z,60
2017-08-16T09:35:50.445Z,60
2017-08-16T09:36:50.451Z,60
2017-08-16T09:37:50.443Z,60
2017-08-16T09:38:50.750Z,60
2017-08-16T09:39:50.436Z,60
2017-08-16T09:40:50.434Z,60
2017-08-16T09:41:50.435Z,60
2017-08-16T09:42:50.432Z,60
2017-08-16T09:43:50.740Z,60
2017-08-16T09:44:50.424Z,60
2017-08-16T09:45:50.421Z,60
2017-08-16T09:46:50.423Z,60
2017-08-16T09:47:50.416Z,60
2017-08-16T09:48:50.423Z,60
2017-08-16T09:49:50.723Z,60
2017-08-16T09:50:50.413Z,55
2017-08-16T09:51:50.411Z,55
2017-08-16T09:52:50.409Z,55
2017-08-16T09:53:50.407Z,55
2017-08-16T09:54:50.406Z,55
2017-08-16T09:55:50.401Z,55
2017-08-16T09:56:50.399Z,55
2017-08-16T09:57:50.397Z,55
2017-08-16T09:58:50.398Z,55
2017-08-16T09:59:50.400Z,55
2017-08-16T10:00:50.700Z,50
2017-08-16T10:01:50.403Z,55
2017-08-16T10:02:50.735Z,55
2017-08-16T10:03:50.693Z,55
2017-08-16T10:04:50.703Z,55
2017-08-16T10:05:50.381Z,55
2017-08-16T10:06:50.686Z,55
2017-08-16T10:07:50.369Z,55
2017-08-16T10:08:50.686Z,55
2017-08-16T10:09:50.681Z,55
2017-08-16T10:10:50.676Z,55
2017-08-16T10:11:50.679Z,55
2017-08-16T10:12:50.667Z,55
2017-08-16T10:13:50.365Z,55
2017-08-16T10:14:50.679Z,55
2017-08-16T10:15:50.672Z,55
2017-08-16T10:16:50.668Z,50
2017-08-16T10:17:50.666Z,50
2017-08-16T10:18:50.351Z,55
2017-08-16T10:19:50.682Z,55
2017-08-16T10:20:50.670Z,55
2017-08-16T10:21:50.655Z,55
2017-08-16T10:22:50.648Z,55
2017-08-16T10:23:50.644Z,55
2017-08-16T10:24:50.342Z,55
2017-08-16T10:25:50.640Z,55
2017-08-16T10:26:50.335Z,55
2017-08-16T10:27:50.022Z,55
2017-08-16T10:28:50.341Z,55
2017-08-16T10:29:50.632Z,50
2017-08-16T10:30:50.357Z,55
2017-08-16T10:31:50.325Z,55
2017-08-16T10:32:50.634Z,60
2017-08-16T10:33:50.633Z,60
2017-08-16T10:34:50.627Z,55
2017-08-16T10:35:50.627Z,55
2017-08-16T10:36:50.624Z,60
2017-08-16T10:37:50.619Z,55
2017-08-16T10:38:50.617Z,50
2017-08-16T10:39:50.626Z,50
2017-08-16T10:40:50.622Z,55
2017-08-16T10:41:50.605Z,50
2017-08-16T10:42:50.611Z,50
2017-08-16T10:43:50.603Z,45
2017-08-16T10:44:50.600Z,45
2017-08-16T10:45:50.602Z,45
2017-08-16T10:46:50.597Z,45
2017-08-16T10:47:50.596Z,45
2017-08-16T10:48:50.598Z,45
2017-08-16T10:49:50.595Z,45
2017-08-16T10:50:50.586Z,45
2017-08-16T10:51:50.589Z,50
2017-08-16T10:52:50.278Z,50
2017-08-16T10:53:50.601Z,50
2017-08-16T10:54:50.584Z,50
2017-08-16T10:55:50.269Z,50
2017-08-16T10:56:50.273Z,50
2017-08-16T10:57:50.572Z,50
2017-08-16T10:58:50.577Z,50
2017-08-16T10:59:50.262Z,45
2017-08-16T11:00:50.581Z,45
2017-08-16T11:01:50.569Z,45
2017-08-16T11:02:50.259Z,45
2017-08-16T11:03:50.561Z,45
2017-08-16T11:04:50.565Z,45
2017-08-16T11:05:50.267Z,45
2017-08-16T11:06:50.553Z,45
2017-08-16T11:07:50.548Z,45
2017-08-16T11:08:50.548Z,45
2017-08-16T11:09:50.563Z,45
2017-08-16T11:10:50.543Z,45
2017-08-16T11:11:50.546Z,45
2017-08-16T11:12:50.546Z,45
2017-08-16T11:13:50.545Z,45
2017-08-16T11:14:50.537Z,45
2017-08-16T11:15:50.541Z,40
2017-08-16T11:16:50.225Z,40
2017-08-16T11:17:50.531Z,40
2017-08-16T11:18:50.536Z,40
2017-08-16T11:19:50.521Z,40
2017-08-16T11:20:50.526Z,40
2017-08-16T11:21:50.521Z,40
2017-08-16T11:22:50.521Z,40
2017-08-16T11:23:50.520Z,40
2017-08-16T11:24:50.209Z,40
2017-08-16T11:25:50.209Z,40
2017-08-16T11:26:50.512Z,40
2017-08-16T11:27:50.519Z,40
2017-08-16T11:28:50.210Z,40
2017-08-16T11:29:50.198Z,40
2017-08-16T11:30:50.504Z,40
2017-08-16T11:31:50.495Z,40
2017-08-16T11:32:50.516Z,40
2017-08-16T11:33:50.508Z,40
2017-08-16T11:34:50.196Z,40
2017-08-16T11:35:49.880Z,40
2017-08-16T11:36:50.487Z,40
2017-08-16T11:37:50.494Z,40
2017-08-16T11:38:50.490Z,40
2017-08-16T11:39:50.479Z,40
2017-08-16T11:40:50.175Z,40
2017-08-16T11:41:50.483Z,40
2017-08-16T11:42:50.484Z,40
2017-08-16T11:43:50.479Z,40
2017-08-16T11:44:50.166Z,40
2017-08-16T11:45:50.176Z,40
2017-08-16T11:46:50.165Z,40
2017-08-16T11:47:50.164Z,40
2017-08-16T11:48:50.476Z,40
2017-08-16T11:49:50.465Z,40
2017-08-16T11:50:50.475Z,40
2017-08-16T11:51:50.462Z,40
2017-08-16T11:52:50.476Z,40
2017-08-16T11:53:50.461Z,40
2017-08-16T11:54:50.457Z,40
2017-08-16T11:55:50.451Z,40
2017-08-16T11:56:50.456Z,40
2017-08-16T11:57:50.475Z,40
2017-08-16T11:58:50.440Z,40
2017-08-16T11:59:50.442Z,40
2017-08-16T12:00:50.438Z,40
2017-08-16T12:01:50.443Z,40
2017-08-16T12:02:50.443Z,40
2017-08-16T12:03:50.436Z,40
2017-08-16T12:04:50.432Z,40
2017-08-16T12:05:50.428Z,40
2017-08-16T12:06:50.422Z,40
2017-08-16T12:07:50.121Z,40
2017-08-16T12:08:50.126Z,40
2017-08-16T12:09:50.435Z,40
2017-08-16T12:10:50.428Z,40
2017-08-16T12:11:50.415Z,40
2017-08-16T12:12:50.419Z,40
2017-08-16T12:13:50.410Z,40
2017-08-16T12:14:50.409Z,40
2017-08-16T12:15:50.107Z,40
2017-08-16T12:16:50.097Z,40
2017-08-16T12:17:49.789Z,40
2017-08-16T12:18:50.415Z,40
2017-08-16T12:19:50.400Z,40
2017-08-16T12:20:50.403Z,40
2017-08-16T12:21:49.778Z,40
2017-08-16T12:22:50.402Z,40
2017-08-16T12:23:50.395Z,40
2017-08-16T12:24:50.397Z,40
2017-08-16T12:25:50.081Z,40
2017-08-16T12:26:50.381Z,40
2017-08-16T12:27:50.377Z,45
2017-08-16T12:28:50.374Z,55
2017-08-16T12:29:50.077Z,55
2017-08-16T12:30:50.382Z,55
2017-08-16T12:31:50.374Z,50
2017-08-16T12:32:50.060Z,50
2017-08-16T12:33:50.422Z,50
2017-08-16T12:34:50.376Z,50
2017-08-16T12:35:50.067Z,50
2017-08-16T12:36:49.443Z,45
2017-08-16T12:37:50.364Z,45
2017-08-16T12:38:50.048Z,45
2017-08-16T12:39:50.360Z,45
2017-08-16T12:40:50.357Z,45
2017-08-16T12:41:50.354Z,45
2017-08-16T12:42:50.048Z,45
2017-08-16T12:43:50.387Z,45
2017-08-16T12:44:50.355Z,45
2017-08-16T12:45:50.348Z,45
2017-08-16T12:46:50.039Z,40
2017-08-16T12:47:50.032Z,40
2017-08-16T12:48:50.235Z,45
2017-08-16T12:49:50.752Z,45
2017-08-16T12:50:50.638Z,45
2017-08-16T12:51:50.284Z,45
2017-08-16T12:52:50.491Z,45
2017-08-16T12:53:50.187Z,45
2017-08-16T12:54:50.120Z,45
2017-08-16T12:55:50.580Z,45
2017-08-16T12:56:50.047Z,45
2017-08-16T12:57:50.667Z,45
2017-08-16T12:58:50.657Z,45
2017-08-16T12:59:50.464Z,45
2017-08-16T13:00:50.250Z,45
2017-08-16T13:01:50.147Z,45
2017-08-16T13:02:50.316Z,45
2017-08-16T13:03:50.007Z,45
2017-08-16T13:04:50.309Z,50
2017-08-16T13:05:50.310Z,45
2017-08-16T13:06:50.495Z,45
2017-08-16T13:07:50.517Z,50
2017-08-16T13:08:50.310Z,50
2017-08-16T13:09:49.989Z,50
2017-08-16T13:10:49.988Z,50
2017-08-16T13:11:50.292Z,50
2017-08-16T13:12:50.287Z,50
2017-08-16T13:13:50.286Z,45
2017-08-16T13:14:49.679Z,45
2017-08-16T13:15:49.976Z,45
2017-08-16T13:16:49.977Z,45
2017-08-16T13:17:49.978Z,45
2017-08-16T13:18:50.279Z,45
2017-08-16T13:19:49.978Z,45
2017-08-16T13:20:49.666Z,45
2017-08-16T13:21:50.278Z,45
2017-08-16T13:22:50.272Z,45
2017-08-16T13:23:50.269Z,45
2017-08-16T13:24:50.269Z,45
2017-08-16T13:25:49.962Z,45
2017-08-16T13:26:49.958Z,40
2017-08-16T13:27:50.260Z,40
2017-08-16T13:28:50.260Z,40
2017-08-16T13:29:49.957Z,40
2017-08-16T13:30:49.948Z,40
2017-08-16T13:31:49.645Z,40
2017-08-16T13:32:49.943Z,40
2017-08-16T13:33:49.941Z,40
2017-08-16T13:34:49.940Z,40
2017-08-16T13:35:49.942Z,40
2017-08-16T13:36:49.628Z,40
2017-08-16T13:37:49.625Z,40
2017-08-16T13:38:49.930Z,40
2017-08-16T13:39:49.935Z,40
2017-08-16T13:40:50.238Z,40
2017-08-16T13:41:50.231Z,40
2017-08-16T13:42:50.227Z,40
2017-08-16T13:43:50.222Z,40
2017-08-16T13:44:50.228Z,40
2017-08-16T13:45:49.918Z,40
2017-08-16T13:46:50.221Z,40
2017-08-16T13:47:50.216Z,35
2017-08-16T13:48:50.217Z,35
2017-08-16T13:49:50.211Z,35
2017-08-16T13:50:50.220Z,35
2017-08-16T13:51:49.908Z,35
2017-08-16T13:52:50.212Z,35
2017-08-16T13:53:49.909Z,35
2017-08-16T13:54:49.897Z,35
2017-08-16T13:55:50.204Z,35
2017-08-16T13:56:50.214Z,30
2017-08-16T13:57:49.897Z,30
2017-08-16T13:58:50.210Z,30
2017-08-16T13:59:49.891Z,30
2017-08-16T14:00:49.889Z,35
2017-08-16T14:01:50.187Z,35
2017-08-16T14:02:49.897Z,35
2017-08-16T14:03:50.206Z,35
2017-08-16T14:04:49.977Z,35
2017-08-16T14:05:49.889Z,35
2017-08-16T14:06:50.192Z,35
2017-08-16T14:07:49.878Z,35
2017-08-16T14:08:49.880Z,40
2017-08-16T14:09:49.868Z,40
2017-08-16T14:10:49.864Z,40
2017-08-16T14:11:49.869Z,40
2017-08-16T14:12:49.865Z,45
2017-08-16T14:13:49.564Z,45
2017-08-16T14:14:49.562Z,45
2017-08-16T14:15:49.871Z,45
2017-08-16T14:16:50.175Z,45
2017-08-16T14:17:49.862Z,50
2017-08-16T14:18:49.857Z,50
2017-08-16T14:19:49.857Z,50
2017-08-16T14:20:50.165Z,50
2017-08-16T14:21:49.852Z,50
2017-08-16T14:22:50.162Z,50
2017-08-16T14:23:50.151Z,50
2017-08-16T14:24:50.154Z,50